Time;durP1;ratioP1;P1;durP2;ratioP2;P2;SDS_P1;SDS_P2;PMS_P1;PMS_P2;Temp;Humidity;BMP_temperature;BMP_pressure;BME280_temperature;BME280_humidity;BME280_pressure;Samples;Min_cycle;Max_cycle;Signal;HPM_P1;HPM_P2
2022/01/21 00:01:00;;;;;;;7.73;2.70;;;;;1.40;102535.00;;;;5049743;28;20858;-70
2022/01/21 00:03:48;;;;;;;2.50;1.67;;;;;1.40;102530.00;;;;5056046;28;20231;-70
2022/01/21 00:06:34;;;;;;;8.63;2.07;;;;;1.50;102524.00;;;;5062817;28;20670;-69
2022/01/21 00:13:24;;;;;;;3.67;1.73;;;;;1.40;102511.00;;;;5069951;28;20255;-69
2022/01/21 00:16:12;;;;;;;10.80;2.00;;;;;1.30;102514.00;;;;5058051;28;20235;-69
2022/01/21 00:19:06;;;;;;;5.73;1.53;;;;;1.30;102541.00;;;;5056641;28;20366;-71
2022/01/21 00:31:04;;;;;;;9.43;1.93;;;;;1.10;102560.00;;;;5063211;28;20653;-69
2022/01/21 00:33:50;;;;;;;4.53;1.60;;;;;1.10;102576.00;;;;5061612;28;20282;-70
2022/01/21 00:36:38;;;;;;;4.20;1.53;;;;;1.10;102568.00;;;;5068824;28;20231;-70
2022/01/21 00:39:27;;;;;;;8.40;1.80;;;;;1.10;102548.00;;;;5068704;28;20244;-70
2022/01/21 00:42:30;;;;;;;8.90;1.90;;;;;1.20;102544.00;;;;5064852;28;20354;-69
2022/01/21 00:45:19;;;;;;;6.37;1.67;;;;;1.20;102534.00;;;;5067297;28;20227;-68
2022/01/21 00:48:06;;;;;;;7.63;1.80;;;;;1.10;102527.00;;;;5063967;28;20227;-69
2022/01/21 00:50:52;;;;;;;12.53;2.00;;;;;1.00;102530.00;;;;5061649;28;20239;-69
2022/01/21 00:53:39;;;;;;;2.53;1.63;;;;;1.00;102541.00;;;;5068600;28;20325;-70
2022/01/21 00:56:26;;;;;;;8.47;2.10;;;;;1.10;102531.00;;;;5068375;28;20289;-70
2022/01/21 00:59:12;;;;;;;5.57;1.90;;;;;1.00;102541.00;;;;5068314;28;20235;-69
2022/01/21 01:01:58;;;;;;;12.70;1.97;;;;;1.00;102551.00;;;;5061618;28;20224;-68
2022/01/21 01:04:45;;;;;;;5.27;1.90;;;;;0.90;102532.00;;;;5060884;28;20407;-69
2022/01/21 01:07:31;;;;;;;5.30;1.50;;;;;0.90;102534.00;;;;5067994;28;20231;-69
2022/01/21 01:10:24;;;;;;;9.47;1.97;;;;;0.80;102538.00;;;;5068505;28;20757;-73
2022/01/21 01:22:29;;;;;;;4.93;1.50;;;;;0.80;102554.00;;;;5065033;28;20297;-67
2022/01/21 01:28:22;;;;;;;2.73;1.80;;;;;0.70;102542.00;;;;5064472;28;20231;-69
2022/01/21 01:31:08;;;;;;;5.30;1.60;;;;;0.70;102550.00;;;;5067561;28;20229;-68
2022/01/21 01:33:58;;;;;;;3.17;1.97;;;;;0.70;102563.00;;;;5066328;28;20219;-68
2022/01/21 01:36:47;;;;;;;9.87;1.90;;;;;0.60;102557.00;;;;5037956;28;20726;-70
2022/01/21 01:39:39;;;;;;;2.83;1.83;;;;;0.70;102553.00;;;;5067958;28;20247;-70
2022/01/21 01:42:56;;;;;;;8.57;1.87;;;;;0.60;102558.00;;;;5065221;28;20240;-70
2022/01/21 01:51:54;;;;;;;6.97;1.97;;;;;0.60;102546.00;;;;5066209;28;20215;-69
2022/01/21 01:54:44;;;;;;;9.67;2.53;;;;;0.60;102538.00;;;;5067441;28;20223;-71
2022/01/21 01:57:31;;;;;;;4.93;2.10;;;;;0.60;102530.00;;;;5066720;28;20228;-71
2022/01/21 02:00:18;;;;;;;5.87;2.03;;;;;0.50;102530.00;;;;5067334;28;20243;-71
2022/01/21 02:03:10;;;;;;;4.67;1.93;;;;;0.50;102520.00;;;;5061745;28;20294;-69
2022/01/21 02:05:56;;;;;;;6.47;1.97;;;;;0.60;102509.00;;;;5066031;28;20314;-69
2022/01/21 02:08:43;;;;;;;14.37;2.60;;;;;0.50;102514.00;;;;5067446;28;20228;-68
2022/01/21 02:11:29;;;;;;;8.20;2.13;;;;;0.50;102524.00;;;;5055278;28;20300;-68
2022/01/21 02:14:21;;;;;;;5.47;2.00;;;;;0.50;102524.00;;;;5054992;28;20227;-70
2022/01/21 02:17:16;;;;;;;4.47;1.53;;;;;0.40;102496.00;;;;5051237;28;20346;-67
2022/01/21 02:23:12;;;;;;;9.30;2.30;;;;;0.50;102532.00;;;;5076004;28;20309;-69
2022/01/21 02:25:58;;;;;;;12.50;1.90;;;;;0.40;102534.00;;;;5060487;28;20282;-71
2022/01/21 02:28:44;;;;;;;7.80;2.07;;;;;0.40;102532.00;;;;5066812;28;20227;-71
2022/01/21 02:31:32;;;;;;;8.73;1.90;;;;;0.40;102534.00;;;;5065988;28;20295;-71
2022/01/21 02:34:18;;;;;;;7.83;2.10;;;;;0.40;102522.00;;;;5066889;28;20235;-68
2022/01/21 02:37:05;;;;;;;13.73;1.90;;;;;0.40;102536.00;;;;5065955;28;20827;-70
2022/01/21 02:39:53;;;;;;;3.90;1.80;;;;;0.50;102527.00;;;;5061946;28;20243;-67
2022/01/21 02:42:39;;;;;;;9.00;2.10;;;;;0.50;102533.00;;;;5066092;28;20307;-69
2022/01/21 02:45:25;;;;;;;7.70;1.97;;;;;0.50;102546.00;;;;5066382;28;20243;-68
2022/01/21 02:48:12;;;;;;;8.10;1.93;;;;;0.60;102544.00;;;;5066521;28;20262;-68
2022/01/21 02:50:58;;;;;;;13.33;1.80;;;;;0.60;102554.00;;;;5060099;28;20346;-70
2022/01/21 02:56:50;;;;;;;4.70;1.67;;;;;0.60;102564.00;;;;5050607;28;20350;-68
2022/01/21 02:59:37;;;;;;;8.40;1.87;;;;;0.60;102558.00;;;;5065001;28;20228;-69
2022/01/21 03:02:24;;;;;;;10.03;2.03;;;;;0.70;102559.00;;;;5065828;28;20278;-68
2022/01/21 03:05:14;;;;;;;5.80;2.20;;;;;0.70;102566.00;;;;5060924;28;20223;-70
2022/01/21 03:08:01;;;;;;;11.13;1.97;;;;;0.70;102556.00;;;;5061101;28;20239;-69
2022/01/21 03:10:47;;;;;;;5.80;1.60;;;;;0.60;102541.00;;;;5062359;28;20358;-68
2022/01/21 03:13:35;;;;;;;6.00;1.50;;;;;0.60;102553.00;;;;5064924;28;20792;-70
2022/01/21 03:16:22;;;;;;;9.10;1.83;;;;;0.70;102550.00;;;;5062722;28;20219;-69
2022/01/21 03:19:08;;;;;;;5.13;1.60;;;;;0.70;102557.00;;;;5065596;28;20223;-68
2022/01/21 03:21:55;;;;;;;13.23;2.20;;;;;0.70;102567.00;;;;5058798;28;20224;-69
2022/01/21 03:24:41;;;;;;;9.30;2.07;;;;;0.70;102562.00;;;;5065608;28;20696;-68
2022/01/21 03:27:27;;;;;;;5.13;1.43;;;;;0.80;102559.00;;;;5065260;28;20232;-69
2022/01/21 03:30:15;;;;;;;8.27;1.83;;;;;0.60;102547.00;;;;5065794;28;20236;-68
2022/01/21 03:33:01;;;;;;;3.67;1.80;;;;;0.60;102560.00;;;;5064784;28;20411;-69
2022/01/21 03:35:48;;;;;;;6.73;2.20;;;;;0.60;102555.00;;;;5058251;28;20224;-68
2022/01/21 03:38:34;;;;;;;6.97;2.33;;;;;0.80;102564.00;;;;5065794;28;20830;-67
2022/01/21 03:41:21;;;;;;;9.13;2.10;;;;;0.80;102560.00;;;;5064718;28;20243;-69
2022/01/21 03:44:07;;;;;;;5.07;1.67;;;;;0.80;102552.00;;;;5065894;28;20224;-70
2022/01/21 03:46:55;;;;;;;13.57;2.23;;;;;0.90;102552.00;;;;5065085;28;20228;-69
2022/01/21 03:49:51;;;;;;;10.83;2.57;;;;;1.00;102556.00;;;;5065693;28;20220;-70
2022/01/21 03:52:37;;;;;;;9.87;1.53;;;;;1.00;102566.00;;;;5065108;28;20243;-71
2022/01/21 03:55:24;;;;;;;5.73;2.07;;;;;1.10;102566.00;;;;5065388;28;20702;-72
2022/01/21 03:58:12;;;;;;;4.97;1.70;;;;;1.10;102570.00;;;;5066334;28;20227;-69
2022/01/21 04:00:58;;;;;;;10.50;2.07;;;;;1.00;102577.00;;;;5068866;28;20231;-70
2022/01/21 04:03:46;;;;;;;4.63;1.90;;;;;1.00;102569.00;;;;5064518;28;20255;-69
2022/01/21 04:06:32;;;;;;;5.27;1.70;;;;;1.00;102578.00;;;;5060965;28;20231;-71
2022/01/21 04:09:18;;;;;;;9.73;2.17;;;;;1.00;102576.00;;;;5061211;28;20227;-69
2022/01/21 04:12:06;;;;;;;9.13;1.87;;;;;1.00;102569.00;;;;5061684;28;20298;-70
2022/01/21 04:14:53;;;;;;;6.23;1.77;;;;;1.00;102564.00;;;;5060107;28;20624;-69
2022/01/21 04:17:39;;;;;;;6.93;2.40;;;;;1.10;102567.00;;;;5053891;28;20231;-69
2022/01/21 04:20:26;;;;;;;8.23;1.70;;;;;1.00;102563.00;;;;5060186;28;20302;-68
2022/01/21 04:23:13;;;;;;;7.47;1.83;;;;;1.00;102567.00;;;;5063521;28;20438;-68
2022/01/21 04:26:00;;;;;;;10.97;2.43;;;;;1.00;102572.00;;;;5060551;28;20225;-69
2022/01/21 04:28:46;;;;;;;6.57;2.20;;;;;1.00;102572.00;;;;5068010;28;20266;-69
2022/01/21 04:31:33;;;;;;;6.60;1.57;;;;;1.00;102567.00;;;;5055730;28;20720;-68
2022/01/21 04:34:19;;;;;;;7.43;2.40;;;;;1.10;102566.00;;;;5079421;28;20267;-69
2022/01/21 04:37:10;;;;;;;5.43;1.50;;;;;1.10;102565.00;;;;5068795;28;20224;-67
2022/01/21 04:40:02;;;;;;;5.90;1.70;;;;;1.20;102541.00;;;;5062487;28;20231;-70
2022/01/21 04:48:56;;;;;;;10.57;2.10;;;;;1.20;102570.00;;;;5062438;28;20228;-69
2022/01/21 04:52:02;;;;;;;3.10;1.70;;;;;1.20;102571.00;;;;5068650;28;20227;-69
2022/01/21 04:54:50;;;;;;;9.53;1.87;;;;;1.20;102545.00;;;;5060855;28;20227;-69
2022/01/21 04:57:37;;;;;;;9.30;1.67;;;;;1.20;102565.00;;;;5067995;28;20302;-68
2022/01/21 05:00:23;;;;;;;3.27;1.80;;;;;1.20;102560.00;;;;5068243;28;20256;-69
2022/01/21 05:03:10;;;;;;;4.17;2.00;;;;;1.20;102561.00;;;;5061521;28;20232;-68
2022/01/21 05:05:57;;;;;;;5.70;1.57;;;;;1.20;102570.00;;;;5066102;28;20348;-69
2022/01/21 05:08:47;;;;;;;8.03;1.80;;;;;1.30;102573.00;;;;5065329;28;20347;-69
2022/01/21 05:11:37;;;;;;;10.63;1.37;;;;;1.40;102580.00;;;;5066707;28;20229;-69
2022/01/21 05:14:27;;;;;;;8.77;1.80;;;;;1.30;102580.00;;;;5067914;28;20239;-68
2022/01/21 05:17:15;;;;;;;5.30;1.70;;;;;1.40;102597.00;;;;5064207;28;20233;-67
2022/01/21 05:20:01;;;;;;;6.30;1.70;;;;;1.40;102594.00;;;;5063319;28;20232;-68
2022/01/21 05:22:47;;;;;;;6.80;1.30;;;;;1.50;102585.00;;;;5057050;28;20593;-70
2022/01/21 05:25:34;;;;;;;3.20;1.47;;;;;1.50;102580.00;;;;5073485;28;20248;-69
2022/01/21 05:28:22;;;;;;;6.23;1.60;;;;;1.40;102580.00;;;;5068001;28;20367;-69
2022/01/21 05:31:08;;;;;;;7.03;2.13;;;;;1.40;102567.00;;;;5063114;28;20778;-69
2022/01/21 05:33:54;;;;;;;5.13;1.80;;;;;1.30;102582.00;;;;5063564;28;20231;-68
2022/01/21 05:36:41;;;;;;;4.70;1.50;;;;;1.30;102559.00;;;;5067827;28;20889;-69
2022/01/21 05:39:27;;;;;;;4.60;1.57;;;;;1.20;102576.00;;;;5065495;28;20231;-69
2022/01/21 05:42:14;;;;;;;7.40;1.53;;;;;1.20;102568.00;;;;5067215;28;20741;-68
2022/01/21 05:48:05;;;;;;;4.17;1.73;;;;;1.10;102588.00;;;;5039329;28;20301;-69
2022/01/21 05:50:51;;;;;;;8.43;2.00;;;;;1.20;102580.00;;;;5062742;28;20243;-68
2022/01/21 05:53:39;;;;;;;7.30;2.17;;;;;1.10;102582.00;;;;5067751;28;20592;-69
2022/01/21 05:56:26;;;;;;;2.37;1.60;;;;;1.10;102581.00;;;;5066476;28;20228;-70
2022/01/21 05:59:12;;;;;;;5.80;1.80;;;;;1.20;102576.00;;;;5067415;28;20227;-71
2022/01/21 06:02:00;;;;;;;9.00;1.93;;;;;1.10;102584.00;;;;5060364;28;22212;-69
2022/01/21 06:04:50;;;;;;;6.47;2.20;;;;;1.10;102589.00;;;;5067541;28;20220;-71
2022/01/21 06:07:36;;;;;;;6.77;1.50;;;;;1.00;102576.00;;;;5066412;28;20219;-69
2022/01/21 06:10:23;;;;;;;2.43;1.30;;;;;1.10;102584.00;;;;5067083;28;20232;-70
2022/01/21 06:13:09;;;;;;;8.03;1.60;;;;;1.10;102589.00;;;;5067228;28;20231;-70
2022/01/21 06:15:56;;;;;;;8.07;1.67;;;;;1.00;102583.00;;;;5066201;28;20228;-67
2022/01/21 06:18:45;;;;;;;2.80;1.57;;;;;1.00;102577.00;;;;5064635;28;20223;-69
2022/01/21 06:21:31;;;;;;;9.20;1.50;;;;;1.10;102592.00;;;;5064378;28;20239;-68
2022/01/21 06:24:17;;;;;;;11.80;2.27;;;;;1.20;102586.00;;;;5067095;28;20305;-68
2022/01/21 06:27:04;;;;;;;4.60;2.07;;;;;1.20;102595.00;;;;5053071;28;20216;-69
2022/01/21 06:29:51;;;;;;;3.90;1.53;;;;;1.10;102603.00;;;;5063410;28;20293;-70
2022/01/21 06:32:37;;;;;;;7.93;1.50;;;;;1.00;102598.00;;;;5067493;28;20342;-70
2022/01/21 06:35:25;;;;;;;10.13;1.53;;;;;1.20;102610.00;;;;5064683;28;20243;-70
2022/01/21 06:38:12;;;;;;;2.60;1.47;;;;;1.10;102602.00;;;;5066873;28;20877;-69
2022/01/21 06:40:58;;;;;;;4.80;1.70;;;;;1.00;102599.00;;;;5060153;28;20227;-69
2022/01/21 06:43:44;;;;;;;4.43;1.53;;;;;0.90;102607.00;;;;5065873;28;20228;-69
2022/01/21 06:46:31;;;;;;;5.23;1.30;;;;;0.90;102616.00;;;;5067129;28;20227;-68
2022/01/21 06:49:17;;;;;;;9.53;1.70;;;;;1.10;102615.00;;;;5063341;28;20251;-68
2022/01/21 06:52:06;;;;;;;3.43;1.47;;;;;1.10;102618.00;;;;5063216;28;20224;-70
2022/01/21 06:54:52;;;;;;;4.77;1.57;;;;;1.00;102611.00;;;;5059632;28;20309;-71
2022/01/21 06:57:39;;;;;;;4.77;1.70;;;;;1.10;102606.00;;;;5066166;28;20228;-70
2022/01/21 07:00:31;;;;;;;2.33;1.40;;;;;1.30;102589.00;;;;5066472;28;20707;-68
2022/01/21 07:03:18;;;;;;;4.43;1.43;;;;;1.30;102603.00;;;;5066662;28;20369;-68
2022/01/21 07:06:05;;;;;;;4.10;1.47;;;;;1.30;102611.00;;;;5062621;28;20232;-69
2022/01/21 07:08:52;;;;;;;3.30;1.40;;;;;1.20;102607.00;;;;5065612;28;20263;-70
2022/01/21 07:11:39;;;;;;;3.90;1.47;;;;;1.20;102626.00;;;;5065330;28;20750;-68
2022/01/21 07:14:25;;;;;;;3.70;1.57;;;;;1.30;102627.00;;;;5074379;28;20230;-68
2022/01/21 07:17:12;;;;;;;7.77;1.73;;;;;1.20;102639.00;;;;5065756;28;20347;-70
2022/01/21 07:19:58;;;;;;;5.77;1.90;;;;;1.40;102630.00;;;;5059880;28;20301;-70
2022/01/21 07:22:44;;;;;;;4.03;1.50;;;;;1.50;102645.00;;;;5059174;28;20699;-69
2022/01/21 07:25:32;;;;;;;4.77;1.60;;;;;1.40;102648.00;;;;5065710;28;20298;-69
2022/01/21 07:28:18;;;;;;;7.13;1.80;;;;;1.30;102658.00;;;;5066759;28;20232;-69
2022/01/21 07:31:04;;;;;;;6.60;1.90;;;;;1.20;102646.00;;;;5064447;28;20223;-69
2022/01/21 07:33:51;;;;;;;2.20;1.53;;;;;1.20;102664.00;;;;5059308;28;20817;-69
2022/01/21 07:36:37;;;;;;;3.67;1.67;;;;;1.10;102659.00;;;;5066020;28;20298;-69
2022/01/21 07:39:23;;;;;;;3.87;1.60;;;;;1.20;102670.00;;;;5065685;28;20232;-69
2022/01/21 07:42:11;;;;;;;5.40;2.13;;;;;1.20;102662.00;;;;5069638;28;20726;-68
2022/01/21 07:44:57;;;;;;;7.10;1.90;;;;;1.10;102656.00;;;;5059326;28;20268;-70
2022/01/21 07:47:43;;;;;;;3.03;1.50;;;;;1.30;102659.00;;;;5053608;28;20232;-69
2022/01/21 07:50:29;;;;;;;6.40;1.73;;;;;1.40;102643.00;;;;5060505;28;20228;-69
2022/01/21 07:53:16;;;;;;;4.80;2.30;;;;;1.30;102646.00;;;;5057286;28;20761;-69
2022/01/21 07:56:02;;;;;;;7.47;1.90;;;;;1.40;102646.00;;;;5072462;28;20606;-68
2022/01/21 07:58:50;;;;;;;4.37;1.50;;;;;1.50;102650.00;;;;5061694;28;20278;-69
2022/01/21 08:01:37;;;;;;;7.67;2.03;;;;;1.50;102631.00;;;;5065363;28;20285;-69
2022/01/21 08:04:23;;;;;;;2.93;1.60;;;;;1.40;102644.00;;;;5062777;28;20231;-70
2022/01/21 08:07:11;;;;;;;6.30;2.40;;;;;1.30;102640.00;;;;5064944;28;20282;-72
2022/01/21 08:09:57;;;;;;;6.03;2.70;;;;;1.40;102644.00;;;;5059706;28;20820;-71
2022/01/21 08:12:44;;;;;;;5.77;1.87;;;;;1.30;102649.00;;;;5057396;28;20231;-72
2022/01/21 08:15:32;;;;;;;3.73;2.00;;;;;1.30;102654.00;;;;5064642;28;20233;-72
2022/01/21 08:18:18;;;;;;;3.73;1.83;;;;;1.30;102650.00;;;;5065790;28;20711;-73
2022/01/21 08:21:05;;;;;;;4.80;2.23;;;;;1.30;102663.00;;;;5064990;28;20232;-72
2022/01/21 08:23:53;;;;;;;8.77;2.53;;;;;1.50;102668.00;;;;5063191;28;20381;-73
2022/01/21 08:26:40;;;;;;;9.03;2.00;;;;;1.50;102668.00;;;;5058528;28;20290;-70
2022/01/21 08:29:26;;;;;;;5.90;2.37;;;;;1.50;102673.00;;;;5071553;28;20247;-72
2022/01/21 08:32:14;;;;;;;13.13;2.47;;;;;1.60;102674.00;;;;5064910;28;20227;-71
2022/01/21 08:35:00;;;;;;;7.37;2.10;;;;;1.60;102664.00;;;;5059378;28;20223;-72
2022/01/21 08:37:47;;;;;;;11.67;2.90;;;;;1.60;102659.00;;;;5053930;28;20268;-70
2022/01/21 08:40:34;;;;;;;8.27;2.53;;;;;1.60;102659.00;;;;5072191;28;20277;-71
2022/01/21 08:43:21;;;;;;;5.83;2.20;;;;;1.60;102664.00;;;;5065024;28;20297;-71
2022/01/21 08:46:07;;;;;;;6.63;2.30;;;;;1.70;102654.00;;;;5068439;28;20227;-71
2022/01/21 08:48:55;;;;;;;9.30;3.03;;;;;1.70;102650.00;;;;5062089;28;20231;-71
2022/01/21 08:51:49;;;;;;;9.60;2.67;;;;;1.70;102656.00;;;;5068275;28;20316;-71
2022/01/21 08:54:35;;;;;;;8.70;3.27;;;;;1.70;102661.00;;;;5068707;28;20944;-71
2022/01/21 08:57:22;;;;;;;10.20;2.87;;;;;1.90;102661.00;;;;5068394;28;20310;-73
2022/01/21 09:00:11;;;;;;;15.70;2.53;;;;;1.80;102667.00;;;;5064256;28;20267;-71
2022/01/21 09:02:57;;;;;;;8.40;3.13;;;;;1.90;102659.00;;;;5060280;28;20363;-72
2022/01/21 09:05:48;;;;;;;9.90;3.20;;;;;2.10;102659.00;;;;5069072;28;20228;-71
2022/01/21 09:08:35;;;;;;;8.57;2.37;;;;;2.00;102662.00;;;;5068354;28;20716;-71
2022/01/21 09:11:21;;;;;;;11.23;2.70;;;;;2.00;102664.00;;;;5068326;28;20232;-72
2022/01/21 09:14:07;;;;;;;10.43;2.30;;;;;2.00;102663.00;;;;5063536;28;20978;-71
2022/01/21 09:16:54;;;;;;;7.87;2.80;;;;;2.00;102658.00;;;;5064038;28;20314;-71
2022/01/21 09:19:40;;;;;;;5.37;2.93;;;;;1.90;102654.00;;;;5068001;28;20224;-71
2022/01/21 09:22:28;;;;;;;4.57;2.80;;;;;1.90;102648.00;;;;5065694;28;20991;-70
2022/01/21 09:25:14;;;;;;;7.67;3.27;;;;;2.00;102646.00;;;;5068130;28;20244;-72
2022/01/21 09:28:01;;;;;;;12.83;2.80;;;;;2.20;102649.00;;;;5062021;28;20239;-72
2022/01/21 09:30:47;;;;;;;7.27;3.03;;;;;2.20;102650.00;;;;5066655;28;20753;-71
2022/01/21 09:33:34;;;;;;;9.10;3.03;;;;;2.30;102654.00;;;;5068018;28;20235;-67
2022/01/21 09:36:26;;;;;;;11.17;3.00;;;;;2.20;102649.00;;;;5065461;28;20260;-72
2022/01/21 09:39:14;;;;;;;5.53;2.73;;;;;2.20;102653.00;;;;5059673;28;20301;-72
2022/01/21 09:42:02;;;;;;;8.77;3.53;;;;;2.30;102661.00;;;;5058128;28;20228;-72
2022/01/21 09:44:49;;;;;;;8.43;3.60;;;;;2.30;102658.00;;;;5064649;28;20239;-71
2022/01/21 09:47:45;;;;;;;11.67;3.60;;;;;2.40;102666.00;;;;5068581;28;20251;-71
2022/01/21 09:50:32;;;;;;;5.97;3.27;;;;;2.60;102661.00;;;;5067879;28;20232;-70
2022/01/21 09:53:24;;;;;;;11.40;4.17;;;;;2.60;102667.00;;;;5067882;28;20247;-70
2022/01/21 09:56:14;;;;;;;6.33;3.20;;;;;2.90;102678.00;;;;5066822;28;20235;-70
2022/01/21 09:59:01;;;;;;;14.37;3.80;;;;;2.80;102644.00;;;;5067019;28;20328;-70
2022/01/21 10:01:50;;;;;;;10.20;4.10;;;;;3.00;102687.00;;;;5067557;28;20235;-70
2022/01/21 10:04:42;;;;;;;12.87;4.00;;;;;3.10;102695.00;;;;5066885;28;20629;-70
2022/01/21 10:07:30;;;;;;;9.17;3.90;;;;;3.20;102685.00;;;;5065262;28;20287;-71
2022/01/21 10:10:17;;;;;;;9.10;3.77;;;;;3.30;102672.00;;;;5067164;28;20231;-73
2022/01/21 10:13:10;;;;;;;10.20;3.37;;;;;3.40;102695.00;;;;5062043;28;20836;-70
2022/01/21 10:15:56;;;;;;;10.23;3.70;;;;;3.60;102688.00;;;;5059864;28;20774;-71
2022/01/21 10:19:00;;;;;;;8.13;3.57;;;;;3.70;102688.00;;;;5066873;28;20232;-71
2022/01/21 10:21:47;;;;;;;10.40;3.30;;;;;3.80;102692.00;;;;5060998;28;20769;-70
2022/01/21 10:24:35;;;;;;;9.73;3.63;;;;;3.80;102688.00;;;;5067096;28;20250;-70
2022/01/21 10:27:25;;;;;;;9.23;3.10;;;;;3.90;102693.00;;;;5066695;28;20335;-71
2022/01/21 10:30:21;;;;;;;6.70;3.50;;;;;3.90;102681.00;;;;5066769;28;20914;-71
2022/01/21 10:33:21;;;;;;;5.23;2.60;;;;;4.00;102672.00;;;;5056738;28;20264;-72
2022/01/21 10:36:10;;;;;;;12.40;3.37;;;;;4.10;102672.00;;;;5061771;28;20234;-72
2022/01/21 10:39:06;;;;;;;8.13;2.87;;;;;4.10;102668.00;;;;5062159;28;20224;-72
2022/01/21 10:41:52;;;;;;;11.63;3.47;;;;;4.10;102687.00;;;;5059338;28;20235;-72
2022/01/21 10:44:49;;;;;;;5.50;2.83;;;;;4.10;102689.00;;;;5066131;28;20236;-72
2022/01/21 10:47:38;;;;;;;6.17;2.40;;;;;4.40;102669.00;;;;5066320;28;21035;-72
2022/01/21 10:50:25;;;;;;;8.93;2.90;;;;;4.20;102671.00;;;;5067137;28;20237;-72
2022/01/21 10:53:27;;;;;;;7.07;2.60;;;;;4.40;102653.00;;;;5061730;28;20671;-71
2022/01/21 10:56:16;;;;;;;5.50;2.30;;;;;4.40;102663.00;;;;5064127;28;20246;-73
2022/01/21 10:59:03;;;;;;;7.27;2.27;;;;;4.30;102663.00;;;;5071414;28;20318;-68
2022/01/21 11:01:59;;;;;;;9.33;2.53;;;;;4.30;102638.00;;;;5066186;28;20231;-69
2022/01/21 11:04:47;;;;;;;9.47;2.30;;;;;4.60;102649.00;;;;5064244;28;20236;-71
2022/01/21 11:07:54;;;;;;;9.27;2.80;;;;;4.50;102654.00;;;;5064833;28;20367;-72
2022/01/21 11:10:44;;;;;;;6.67;2.60;;;;;4.70;102655.00;;;;5065345;28;20274;-70
2022/01/21 11:13:37;;;;;;;7.27;2.60;;;;;4.80;102653.00;;;;5066043;28;20698;-71
2022/01/21 11:16:25;;;;;;;6.57;2.33;;;;;4.90;102655.00;;;;5065926;28;20237;-69
2022/01/21 11:19:34;;;;;;;5.00;2.33;;;;;5.10;102662.00;;;;5064604;28;20231;-70
2022/01/21 11:22:22;;;;;;;10.43;2.63;;;;;5.30;102650.00;;;;5065471;28;20235;-70
2022/01/21 11:25:08;;;;;;;7.47;2.80;;;;;5.30;102652.00;;;;5065706;28;20247;-71
2022/01/21 11:27:56;;;;;;;7.17;2.50;;;;;5.30;102645.00;;;;5070297;28;20440;-70
2022/01/21 11:30:42;;;;;;;4.97;2.30;;;;;5.30;102656.00;;;;5069470;28;20250;-71
2022/01/21 11:33:29;;;;;;;6.50;2.47;;;;;5.30;102657.00;;;;5065671;28;20305;-70
2022/01/21 11:36:15;;;;;;;6.40;2.17;;;;;5.30;102654.00;;;;5062453;28;20992;-70
2022/01/21 11:39:04;;;;;;;7.70;2.83;;;;;5.20;102646.00;;;;5060375;28;20228;-71
2022/01/21 11:41:51;;;;;;;8.03;2.10;;;;;5.30;102654.00;;;;5058323;28;20277;-71
2022/01/21 11:44:41;;;;;;;6.13;2.43;;;;;5.20;102656.00;;;;5065769;28;20235;-70
2022/01/21 11:47:48;;;;;;;13.73;6.00;;;;;5.40;102655.00;;;;5065557;28;20227;-72
2022/01/21 11:50:34;;;;;;;9.20;3.00;;;;;5.30;102655.00;;;;5051952;28;20327;-72
2022/01/21 11:53:45;;;;;;;8.83;2.00;;;;;5.30;102645.00;;;;5056925;28;20235;-72
2022/01/21 11:56:36;;;;;;;11.63;2.57;;;;;5.50;102643.00;;;;5054161;28;20382;-70
2022/01/21 11:59:29;;;;;;;9.77;2.30;;;;;5.40;102625.00;;;;5064431;28;20323;-72
2022/01/21 12:02:22;;;;;;;9.27;2.30;;;;;5.40;102639.00;;;;5049951;28;20306;-71
2022/01/21 12:05:11;;;;;;;8.87;2.50;;;;;5.40;102622.00;;;;5055962;28;20242;-72
2022/01/21 12:07:59;;;;;;;10.03;2.43;;;;;5.30;102633.00;;;;5061334;28;20224;-71
2022/01/21 12:10:46;;;;;;;8.87;2.60;;;;;5.30;102624.00;;;;5065957;28;20806;-70
2022/01/21 12:13:34;;;;;;;9.73;2.60;;;;;5.20;102620.00;;;;5065596;28;20315;-70
2022/01/21 12:16:51;;;;;;;11.03;2.73;;;;;5.20;102627.00;;;;5062688;28;20227;-71
2022/01/21 12:19:38;;;;;;;7.53;2.50;;;;;5.10;102631.00;;;;5065763;28;20243;-70
2022/01/21 12:22:25;;;;;;;6.70;2.40;;;;;5.20;102617.00;;;;5068543;28;20235;-71
2022/01/21 12:25:12;;;;;;;7.57;2.10;;;;;5.20;102617.00;;;;5069381;28;20236;-70
2022/01/21 12:28:16;;;;;;;7.43;2.50;;;;;5.20;102620.00;;;;5062969;28;20223;-70
2022/01/21 12:31:05;;;;;;;9.67;2.50;;;;;5.20;102623.00;;;;5068186;28;20597;-72
2022/01/21 12:34:02;;;;;;;6.97;2.37;;;;;5.20;102615.00;;;;5060371;28;20294;-72
2022/01/21 12:36:51;;;;;;;12.30;2.90;;;;;5.20;102612.00;;;;5062951;28;20233;-72
2022/01/21 12:39:43;;;;;;;8.27;2.67;;;;;5.30;102605.00;;;;5067388;28;20343;-72
2022/01/21 12:42:35;;;;;;;11.40;2.90;;;;;5.30;102595.00;;;;5056338;28;20646;-70
2022/01/21 12:45:25;;;;;;;6.70;2.37;;;;;5.20;102612.00;;;;5056634;28;20306;-71
2022/01/21 12:48:32;;;;;;;9.67;3.07;;;;;5.20;102606.00;;;;5072553;28;20923;-73
2022/01/21 12:51:32;;;;;;;6.70;2.53;;;;;5.10;102615.00;;;;5067374;28;20605;-74
2022/01/21 12:57:25;;;;;;;9.00;2.87;;;;;5.30;102603.00;;;;5068281;28;20685;-72
2022/01/21 13:00:13;;;;;;;8.37;2.53;;;;;5.30;102607.00;;;;5069630;28;20224;-72
2022/01/21 13:03:08;;;;;;;8.67;3.03;;;;;5.20;102604.00;;;;5062867;28;20709;-72
2022/01/21 13:06:15;;;;;;;10.63;2.97;;;;;5.20;102603.00;;;;5067329;28;20710;-72
2022/01/21 13:09:07;;;;;;;10.80;2.77;;;;;5.20;102593.00;;;;5064861;28;20777;-71
2022/01/21 13:11:55;;;;;;;13.27;2.97;;;;;5.50;102592.00;;;;5061411;28;20227;-72
2022/01/21 13:14:52;;;;;;;5.13;2.47;;;;;5.40;102579.00;;;;5070127;28;20293;-72
2022/01/21 13:17:38;;;;;;;9.33;3.33;;;;;5.40;102575.00;;;;5069161;28;20616;-74
2022/01/21 13:20:29;;;;;;;6.17;2.53;;;;;5.40;102576.00;;;;5068881;28;20670;-72
2022/01/21 13:23:41;;;;;;;6.23;2.70;;;;;5.60;102570.00;;;;5068872;28;20239;-71
2022/01/21 13:26:31;;;;;;;9.10;3.33;;;;;5.60;102575.00;;;;5066596;28;20355;-73
2022/01/21 13:29:17;;;;;;;10.73;2.77;;;;;5.50;102565.00;;;;5069242;28;20254;-71
2022/01/21 13:32:05;;;;;;;9.50;2.90;;;;;5.50;102564.00;;;;5062046;28;20306;-71
2022/01/21 13:34:51;;;;;;;13.10;3.23;;;;;5.60;102558.00;;;;5068560;28;20236;-70
2022/01/21 13:37:38;;;;;;;6.37;2.70;;;;;5.60;102559.00;;;;5068729;28;20235;-72
2022/01/21 13:40:29;;;;;;;8.27;3.03;;;;;5.50;102548.00;;;;5068513;28;20852;-71
2022/01/21 13:43:19;;;;;;;16.20;3.30;;;;;5.40;102557.00;;;;5068509;28;20267;-71
2022/01/21 13:46:09;;;;;;;14.73;3.60;;;;;5.30;102561.00;;;;5068207;28;20742;-72
2022/01/21 13:48:56;;;;;;;9.33;2.97;;;;;5.30;102557.00;;;;5067295;28;20270;-72
2022/01/21 13:51:53;;;;;;;8.73;3.00;;;;;5.30;102573.00;;;;5079051;28;20227;-69
2022/01/21 13:54:44;;;;;;;9.13;3.23;;;;;5.30;102566.00;;;;5086482;28;20598;-72
2022/01/21 13:57:32;;;;;;;8.47;3.10;;;;;5.20;102560.00;;;;5067933;28;20232;-72
2022/01/21 14:00:27;;;;;;;10.93;3.60;;;;;5.30;102561.00;;;;5067349;28;20609;-72
2022/01/21 14:03:18;;;;;;;9.00;3.57;;;;;5.40;102558.00;;;;5066750;28;20881;-69
2022/01/21 14:06:06;;;;;;;12.90;3.53;;;;;5.30;102561.00;;;;5055399;28;20236;-71
2022/01/21 14:08:57;;;;;;;15.77;4.47;;;;;5.30;102564.00;;;;5051862;28;20240;-72
2022/01/21 14:11:46;;;;;;;10.17;4.13;;;;;5.30;102559.00;;;;5052056;28;20814;-70
2022/01/21 14:14:34;;;;;;;14.93;3.90;;;;;5.30;102552.00;;;;5053639;28;20228;-71
2022/01/21 14:17:24;;;;;;;10.60;4.00;;;;;5.20;102562.00;;;;5059321;28;20229;-69
2022/01/21 14:20:20;;;;;;;11.40;4.60;;;;;5.20;102562.00;;;;5055052;28;20239;-71
2022/01/21 14:23:07;;;;;;;14.47;4.67;;;;;5.20;102546.00;;;;5067851;28;20231;-71
2022/01/21 14:25:53;;;;;;;10.03;4.43;;;;;5.20;102553.00;;;;5060502;28;20238;-69
2022/01/21 14:28:43;;;;;;;13.87;4.87;;;;;5.20;102553.00;;;;5066186;28;20395;-69
2022/01/21 14:31:33;;;;;;;8.23;4.40;;;;;5.40;102558.00;;;;5065853;28;20263;-70
2022/01/21 14:34:24;;;;;;;10.03;5.13;;;;;5.40;102545.00;;;;5065733;28;20236;-71
2022/01/21 14:37:12;;;;;;;11.20;5.13;;;;;5.30;102546.00;;;;5057382;28;20236;-70
2022/01/21 14:40:00;;;;;;;15.27;5.63;;;;;5.30;102548.00;;;;5059482;28;20231;-72
2022/01/21 14:42:47;;;;;;;9.27;4.63;;;;;5.20;102553.00;;;;5064476;28;20231;-71
2022/01/21 14:45:34;;;;;;;13.37;5.20;;;;;5.20;102552.00;;;;5065067;28;20239;-71
2022/01/21 14:48:24;;;;;;;12.73;5.40;;;;;5.20;102546.00;;;;5065531;28;20773;-72
2022/01/21 14:51:17;;;;;;;9.67;5.43;;;;;5.20;102552.00;;;;5065223;28;20231;-72
2022/01/21 14:54:15;;;;;;;15.00;6.00;;;;;5.30;102553.00;;;;5060108;28;20240;-70